createdAt,value
2023-04-04T00:00:45.284Z,102462.31
2023-04-04T00:03:12.410Z,102454.47
2023-04-04T00:05:39.354Z,102459.63
2023-04-04T00:08:06.394Z,102455.94
2023-04-04T00:10:33.372Z,102453.31
2023-04-04T00:13:00.646Z,102452.47
2023-04-04T00:15:27.779Z,102444.53
2023-04-04T00:17:54.777Z,102447.53
2023-04-04T00:20:21.791Z,102442.00
2023-04-04T00:22:48.813Z,102444.47
2023-04-04T00:25:15.788Z,102435.91
2023-04-04T00:27:42.867Z,102430.97
2023-04-04T00:30:10.201Z,102428.34
2023-04-04T00:32:37.198Z,102427.59
2023-04-04T00:35:04.334Z,102418.91
2023-04-04T00:37:31.353Z,102425.09
2023-04-04T00:39:58.402Z,102419.00
2023-04-04T00:42:25.425Z,102430.41
2023-04-04T00:44:52.657Z,102427.44
2023-04-04T00:47:22.663Z,102423.75
2023-04-04T00:49:49.569Z,102422.00
2023-04-04T00:52:16.715Z,102421.34
2023-04-04T00:54:43.857Z,102421.34
2023-04-04T00:57:10.781Z,102416.28
2023-04-04T00:59:38.086Z,102414.78
2023-04-04T01:02:08.898Z,102410.41
2023-04-04T01:04:36.493Z,102418.16
2023-04-04T01:07:04.768Z,102413.94
2023-04-04T01:09:32.284Z,102412.38
2023-04-04T01:11:59.470Z,102409.84
2023-04-04T01:14:26.528Z,102412.53
2023-04-04T01:16:53.567Z,102411.81
2023-04-04T01:19:25.086Z,102408.50
2023-04-04T01:21:53.278Z,102410.41
2023-04-04T01:24:22.882Z,102408.06
2023-04-04T01:26:51.058Z,102398.88
2023-04-04T01:29:18.010Z,102390.47
2023-04-04T01:31:50.136Z,102395.22
2023-04-04T01:34:21.389Z,102395.34
2023-04-04T01:36:53.987Z,102397.38
2023-04-04T01:39:25.255Z,102399.25
2023-04-04T01:41:52.466Z,102399.25
2023-04-04T01:44:19.753Z,102394.00
2023-04-04T01:46:46.708Z,102386.34
2023-04-04T01:49:13.696Z,102387.09
2023-04-04T01:51:41.180Z,102387.47
2023-04-04T01:54:08.318Z,102393.63
2023-04-04T01:56:35.452Z,102396.31
2023-04-04T01:59:02.449Z,102400.78
2023-04-04T02:01:29.591Z,102396.59
2023-04-04T02:03:56.529Z,102394.91
2023-04-04T02:06:23.829Z,102390.53
2023-04-04T02:08:50.863Z,102388.75
2023-04-04T02:11:17.911Z,102388.00
2023-04-04T02:13:44.997Z,102385.56
2023-04-04T02:16:12.087Z,102385.00
2023-04-04T02:18:39.177Z,102387.69
2023-04-04T02:21:06.164Z,102391.44
2023-04-04T02:23:33.086Z,102384.50
2023-04-04T02:26:00.050Z,102378.53
2023-04-04T02:28:29.216Z,102375.34
2023-04-04T02:30:56.273Z,102374.50
2023-04-04T02:33:23.387Z,102380.66
2023-04-04T02:35:50.290Z,102371.13
2023-04-04T02:38:17.321Z,102377.47
2023-04-04T02:40:45.954Z,102376.44
2023-04-04T02:43:12.887Z,102382.25
2023-04-04T02:45:39.827Z,102383.94
2023-04-04T02:48:07.998Z,102390.19
2023-04-04T02:50:35.130Z,102394.09
2023-04-04T02:53:02.616Z,102383.81
2023-04-04T02:55:29.595Z,102386.59
2023-04-04T02:57:56.739Z,102383.31
2023-04-04T03:00:23.604Z,102379.78
2023-04-04T03:02:57.330Z,102379.69
2023-04-04T03:05:25.529Z,102383.25
2023-04-04T03:07:54.722Z,102380.63
2023-04-04T03:10:21.625Z,102380.50
2023-04-04T03:12:48.536Z,102395.28
2023-04-04T03:15:17.679Z,102386.59
2023-04-04T03:17:45.307Z,102389.19
2023-04-04T03:20:13.072Z,102391.09
2023-04-04T03:22:39.949Z,102395.38
2023-04-04T03:25:07.111Z,102398.75
2023-04-04T03:27:34.934Z,102393.84
2023-04-04T03:30:02.237Z,102386.34
2023-04-04T03:32:29.165Z,102404.06
2023-04-04T03:34:56.148Z,102397.00
2023-04-04T03:37:23.372Z,102394.38
2023-04-04T03:39:50.520Z,102395.31
2023-04-04T03:42:17.462Z,102405.09
2023-04-04T03:44:44.322Z,102405.94
2023-04-04T03:47:11.210Z,102399.03
2023-04-04T03:49:38.096Z,102406.59
2023-04-04T03:52:05.211Z,102391.00
2023-04-04T03:54:32.179Z,102398.94
2023-04-04T03:56:59.227Z,102401.84
2023-04-04T03:59:26.234Z,102399.38
2023-04-04T04:01:53.222Z,102397.00
2023-04-04T04:04:20.344Z,102400.47
2023-04-04T04:06:49.635Z,102397.88
2023-04-04T04:09:16.469Z,102404.84
2023-04-04T04:11:43.322Z,102406.72
2023-04-04T04:14:10.181Z,102403.28
2023-04-04T04:16:39.719Z,102409.16
2023-04-04T04:19:06.561Z,102408.56
2023-04-04T04:21:33.443Z,102404.53
2023-04-04T04:24:00.283Z,102401.25
2023-04-04T04:26:27.714Z,102402.94
2023-04-04T04:28:54.695Z,102400.34
2023-04-04T04:31:22.033Z,102398.53
2023-04-04T04:33:49.084Z,102397.72
2023-04-04T04:36:16.065Z,102395.91
2023-04-04T04:38:43.218Z,102391.72
2023-04-04T04:41:10.110Z,102394.41
2023-04-04T04:43:37.604Z,102392.56
2023-04-04T04:46:04.475Z,102390.81
2023-04-04T04:48:31.474Z,102390.09
2023-04-04T04:50:58.308Z,102385.91
2023-04-04T04:53:25.147Z,102396.44
2023-04-04T04:55:52.770Z,102380.09
2023-04-04T04:58:22.884Z,102378.34
2023-04-04T05:00:49.861Z,102373.03
2023-04-04T05:03:16.957Z,102375.72
2023-04-04T05:05:44.428Z,102376.81
2023-04-04T05:08:11.287Z,102384.81
2023-04-04T05:10:38.351Z,102381.72
2023-04-04T05:13:05.400Z,102383.22
2023-04-04T05:15:32.662Z,102392.75
2023-04-04T05:17:59.639Z,102391.66
2023-04-04T05:20:26.727Z,102388.13
2023-04-04T05:22:53.605Z,102394.16
2023-04-04T05:25:20.480Z,102390.81
2023-04-04T05:27:48.676Z,102396.28
2023-04-04T05:30:16.004Z,102393.19
2023-04-04T05:32:44.861Z,102404.75
2023-04-04T05:35:11.808Z,102399.78
2023-04-04T05:37:40.647Z,102403.56
2023-04-04T05:40:08.106Z,102404.47
2023-04-04T05:42:35.004Z,102406.16
2023-04-04T05:45:01.984Z,102411.31
2023-04-04T05:47:28.836Z,102410.41
2023-04-04T05:49:55.682Z,102406.84
2023-04-04T05:52:22.812Z,102408.53
2023-04-04T05:54:49.769Z,102409.31
2023-04-04T05:57:19.752Z,102415.19
2023-04-04T05:59:46.978Z,102408.88
2023-04-04T06:02:13.936Z,102420.78
2023-04-04T06:04:41.386Z,102425.69
2023-04-04T06:07:08.197Z,102424.00
2023-04-04T06:09:36.553Z,102413.47
2023-04-04T06:12:05.041Z,102414.31
2023-04-04T06:14:31.986Z,102415.81
2023-04-04T06:16:59.141Z,102421.81
2023-04-04T06:19:26.362Z,102418.19
2023-04-04T06:21:53.205Z,102429.16
2023-04-04T06:24:20.258Z,102430.84
2023-04-04T06:26:51.644Z,102429.75
2023-04-04T06:29:20.774Z,102427.78
2023-04-04T06:31:47.743Z,102438.16
2023-04-04T06:34:15.153Z,102439.09
2023-04-04T06:36:42.006Z,102438.09
2023-04-04T06:39:08.919Z,102438.75
2023-04-04T06:41:35.761Z,102447.44
2023-04-04T06:44:02.729Z,102441.28
2023-04-04T06:46:31.740Z,102440.25
2023-04-04T06:48:58.657Z,102448.44
2023-04-04T06:51:25.935Z,102451.63
2023-04-04T06:53:52.939Z,102449.72
2023-04-04T06:56:19.890Z,102449.25
2023-04-04T06:58:46.896Z,102446.81
2023-04-04T07:01:14.016Z,102450.94
2023-04-04T07:03:40.930Z,102453.88
2023-04-04T07:06:07.759Z,102450.94
2023-04-04T07:08:36.948Z,102447.66
2023-04-04T07:11:04.450Z,102456.94
2023-04-04T07:13:35.634Z,102453.75
2023-04-04T07:16:03.170Z,102447.97
2023-04-04T07:18:30.153Z,102454.44
2023-04-04T07:20:57.876Z,102452.88
2023-04-04T07:23:24.847Z,102447.06
2023-04-04T07:25:52.433Z,102454.06
2023-04-04T07:28:19.534Z,102441.41
2023-04-04T07:30:46.481Z,102454.47
2023-04-04T07:33:13.578Z,102453.13
2023-04-04T07:35:40.613Z,102451.38
2023-04-04T07:38:07.780Z,102437.84
2023-04-04T07:40:34.779Z,102430.09
2023-04-04T07:43:01.803Z,102431.22
2023-04-04T07:45:28.945Z,102432.16
2023-04-04T07:47:56.392Z,102439.06
2023-04-04T07:50:23.386Z,102431.31
2023-04-04T07:52:52.637Z,102422.91
2023-04-04T07:55:21.582Z,102425.56
2023-04-04T07:57:48.491Z,102415.69
2023-04-04T08:00:15.784Z,102412.66
2023-04-04T08:02:43.866Z,102415.38
2023-04-04T08:05:11.111Z,102428.34
2023-04-04T08:07:38.039Z,102418.72
2023-04-04T08:10:05.331Z,102419.72
2023-04-04T08:12:32.815Z,102414.03
2023-04-04T08:14:59.707Z,102411.09
2023-04-04T08:17:26.905Z,102419.28
2023-04-04T08:19:53.818Z,102416.41
2023-04-04T08:22:20.946Z,102405.47
2023-04-04T08:24:47.821Z,102404.34
2023-04-04T08:27:16.334Z,102406.63
2023-04-04T08:29:43.263Z,102403.16
2023-04-04T08:32:10.190Z,102413.44
2023-04-04T08:34:37.827Z,102398.00
2023-04-04T08:37:04.957Z,102408.50
2023-04-04T08:39:32.003Z,102405.84
2023-04-04T08:42:06.980Z,102393.16
2023-04-04T08:44:35.271Z,102400.78
2023-04-04T08:47:03.780Z,102404.47
2023-04-04T08:49:32.949Z,102400.84
2023-04-04T08:52:00.295Z,102397.13
2023-04-04T08:54:29.373Z,102389.22
2023-04-04T08:56:56.465Z,102395.34
2023-04-04T08:59:23.622Z,102400.00
2023-04-04T09:01:54.344Z,102394.44
2023-04-04T09:04:22.122Z,102397.22
2023-04-04T09:06:49.295Z,102397.44
2023-04-04T09:09:17.335Z,102405.94
2023-04-04T09:11:46.965Z,102398.56
2023-04-04T09:14:14.014Z,102405.28
2023-04-04T09:16:41.541Z,102400.72
2023-04-04T09:19:08.612Z,102400.25
2023-04-04T09:21:35.632Z,102402.53
2023-04-04T09:24:03.353Z,102403.28
2023-04-04T09:26:33.852Z,102395.88
2023-04-04T09:29:00.814Z,102401.75
2023-04-04T09:31:27.860Z,102405.59
2023-04-04T09:33:54.961Z,102402.50
2023-04-04T09:36:22.788Z,102392.56
2023-04-04T09:38:53.797Z,102392.31
2023-04-04T09:41:21.869Z,102392.22
2023-04-04T09:43:49.789Z,102387.69
2023-04-04T09:46:19.591Z,102383.38
2023-04-04T09:48:51.958Z,102389.00
2023-04-04T09:51:19.148Z,102386.97
2023-04-04T09:53:48.344Z,102376.31
2023-04-04T09:56:15.275Z,102377.28
2023-04-04T09:58:56.014Z,102369.03
2023-04-04T10:01:30.066Z,102370.56
2023-04-04T10:03:58.579Z,102361.47
2023-04-04T10:06:25.970Z,102363.88
2023-04-04T10:08:53.060Z,102361.59
2023-04-04T10:11:30.410Z,102358.47
2023-04-04T10:13:57.811Z,102360.63
2023-04-04T10:16:25.791Z,102369.25
2023-04-04T10:18:53.016Z,102374.38
2023-04-04T10:21:20.375Z,102367.47
2023-04-04T10:23:47.565Z,102366.47
2023-04-04T10:26:14.754Z,102372.00
2023-04-04T10:28:42.683Z,102365.69
2023-04-04T10:31:15.766Z,102366.63
2023-04-04T10:33:51.948Z,102368.06
2023-04-04T10:36:23.097Z,102361.22
2023-04-04T10:38:55.909Z,102352.13
2023-04-04T10:41:23.631Z,102340.13
2023-04-04T10:43:54.135Z,102349.34
2023-04-04T10:46:23.898Z,102344.56
2023-04-04T10:48:51.309Z,102344.28
2023-04-04T10:51:18.594Z,102345.13
2023-04-04T10:53:45.750Z,102327.50
2023-04-04T10:56:13.414Z,102333.63
2023-04-04T10:58:42.091Z,102318.53
2023-04-04T11:01:10.473Z,102326.56
2023-04-04T11:03:57.450Z,102323.91
2023-04-04T11:06:40.111Z,102318.63
2023-04-04T11:09:07.603Z,102324.50
2023-04-04T11:11:55.349Z,102315.13
2023-04-04T11:14:29.756Z,102312.84
2023-04-04T11:16:58.435Z,102317.75
2023-04-04T11:19:26.933Z,102321.06
2023-04-04T11:21:53.935Z,102323.09
2023-04-04T11:24:20.988Z,102322.25
2023-04-04T11:26:47.938Z,102331.97
2023-04-04T11:29:21.137Z,102327.25
2023-04-04T11:31:49.692Z,102313.94
2023-04-04T11:34:30.500Z,102313.69
2023-04-04T11:36:58.370Z,102321.81
2023-04-04T11:39:27.861Z,102322.16
2023-04-04T11:41:57.655Z,102318.13
2023-04-04T11:44:29.758Z,102314.44
2023-04-04T11:46:58.083Z,102316.28
2023-04-04T11:49:29.342Z,102309.19
2023-04-04T11:51:56.791Z,102323.13
2023-04-04T11:54:24.046Z,102317.56
2023-04-04T11:56:51.220Z,102323.44
2023-04-04T11:59:19.681Z,102325.69
2023-04-04T12:01:46.996Z,102322.06
2023-04-04T12:04:15.518Z,102326.66
2023-04-04T12:06:43.261Z,102318.59
2023-04-04T12:09:13.589Z,102316.56
2023-04-04T12:11:40.745Z,102309.31
2023-04-04T12:14:15.456Z,102307.97
2023-04-04T12:16:46.618Z,102309.00
2023-04-04T12:19:13.528Z,102297.03
2023-04-04T12:21:41.004Z,102301.78
2023-04-04T12:24:09.456Z,102300.72
2023-04-04T12:26:38.252Z,102300.56
2023-04-04T12:29:06.151Z,102300.06
2023-04-04T12:31:36.298Z,102298.53
2023-04-04T12:34:03.480Z,102295.06
2023-04-04T12:36:30.610Z,102283.19
2023-04-04T12:39:06.994Z,102286.78
2023-04-04T12:41:34.413Z,102282.34
2023-04-04T12:44:03.111Z,102288.34
2023-04-04T12:46:37.085Z,102287.97
2023-04-04T12:49:04.644Z,102279.34
2023-04-04T12:51:33.404Z,102273.81
2023-04-04T12:54:00.796Z,102275.09
2023-04-04T12:56:28.420Z,102276.09
2023-04-04T12:59:00.794Z,102274.72
2023-04-04T13:01:28.816Z,102279.47
2023-04-04T13:03:56.036Z,102269.56
2023-04-04T13:06:23.137Z,102254.81
2023-04-04T13:08:51.260Z,102260.38
2023-04-04T13:11:18.448Z,102253.81
2023-04-04T13:16:36.092Z,102250.50
2023-04-04T13:19:03.924Z,102236.16
2023-04-04T13:21:31.273Z,102240.63
2023-04-04T13:23:58.587Z,102241.59
2023-04-04T13:26:26.530Z,102232.72
2023-04-04T13:28:53.481Z,102229.78
2023-04-04T13:31:20.665Z,102223.53
2023-04-04T13:33:47.661Z,102213.19
2023-04-04T13:36:14.756Z,102210.16
2023-04-04T13:38:42.132Z,102217.50
2023-04-04T13:41:09.073Z,102223.22
2023-04-04T13:43:36.053Z,102214.75
2023-04-04T13:46:03.220Z,102205.13
2023-04-04T13:48:30.202Z,102205.53
2023-04-04T13:50:57.982Z,102202.22
2023-04-04T13:53:24.978Z,102198.16
2023-04-04T13:56:16.331Z,102205.69
2023-04-04T13:58:39.308Z,102190.75
2023-04-04T14:01:07.308Z,102196.16
2023-04-04T14:03:34.448Z,102192.41
2023-04-04T14:06:09.238Z,102188.22
2023-04-04T14:08:37.554Z,102187.09
2023-04-04T14:11:04.768Z,102190.84
2023-04-04T14:13:33.323Z,102180.44
2023-04-04T14:16:00.334Z,102182.13
2023-04-04T14:18:27.626Z,102169.84
2023-04-04T14:20:54.716Z,102170.13
2023-04-04T14:23:22.451Z,102167.47
2023-04-04T14:25:51.321Z,102159.66
2023-04-04T14:28:18.395Z,102158.81
2023-04-04T14:30:45.470Z,102148.50
2023-04-04T14:33:12.734Z,102154.22
2023-04-04T14:35:40.186Z,102145.44
2023-04-04T14:38:07.297Z,102149.16
2023-04-04T14:40:34.228Z,102146.28
2023-04-04T14:43:03.821Z,102147.78
2023-04-04T14:45:30.732Z,102137.06
2023-04-04T14:47:57.648Z,102147.94
2023-04-04T14:50:24.684Z,102138.84
2023-04-04T14:52:53.206Z,102131.28
2023-04-04T14:55:22.790Z,102129.03
2023-04-04T15:00:21.374Z,102124.97
2023-04-04T15:02:48.441Z,102115.72
2023-04-04T15:05:15.827Z,102120.75
2023-04-04T15:07:43.142Z,102111.13
2023-04-04T15:10:10.237Z,102109.97
2023-04-04T15:12:37.324Z,102109.00
2023-04-04T15:15:04.798Z,102106.22
2023-04-04T15:17:31.910Z,102095.63
2023-04-04T15:20:00.222Z,102102.28
2023-04-04T15:22:27.203Z,102096.84
2023-04-04T15:24:56.420Z,102102.59
2023-04-04T15:27:23.413Z,102091.28
2023-04-04T15:29:50.584Z,102080.38
2023-04-04T15:32:17.728Z,102084.56
2023-04-04T15:34:44.650Z,102087.59
2023-04-04T15:37:12.598Z,102085.63
2023-04-04T15:39:49.627Z,102081.34
2023-04-04T15:42:19.154Z,102088.59
2023-04-04T15:44:46.281Z,102087.59
2023-04-04T15:47:13.339Z,102080.19
2023-04-04T15:49:40.635Z,102073.75
2023-04-04T15:52:07.578Z,102080.88
2023-04-04T15:54:34.601Z,102075.56
2023-04-04T15:57:02.070Z,102077.25
2023-04-04T15:59:32.289Z,102071.78
2023-04-04T16:01:59.549Z,102068.66
2023-04-04T16:04:26.782Z,102059.59
2023-04-04T16:06:53.916Z,102055.97
2023-04-04T16:09:22.263Z,102064.75
2023-04-04T16:11:49.382Z,102055.66
2023-04-04T16:14:16.697Z,102056.50
2023-04-04T16:16:44.147Z,102054.69
2023-04-04T16:19:14.693Z,102054.81
2023-04-04T16:21:42.290Z,102047.47
2023-04-04T16:24:09.812Z,102046.94
2023-04-04T16:26:37.068Z,102046.41
2023-04-04T16:29:04.408Z,102037.78
2023-04-04T16:31:32.235Z,102034.28
2023-04-04T16:34:00.049Z,102032.63
2023-04-04T16:36:28.145Z,102029.81
2023-04-04T16:38:55.529Z,102026.19
2023-04-04T16:41:24.761Z,102029.69
2023-04-04T16:43:53.098Z,102029.53
2023-04-04T16:46:20.429Z,102041.78
2023-04-04T16:48:49.631Z,102035.81
2023-04-04T16:51:17.568Z,102029.81
2023-04-04T16:53:44.952Z,102035.97
2023-04-04T16:56:12.742Z,102029.97
2023-04-04T16:58:40.678Z,102030.81
2023-04-04T17:01:08.563Z,102032.63
2023-04-04T17:03:35.834Z,102026.50
2023-04-04T17:06:03.511Z,102023.16
2023-04-04T17:08:35.360Z,102019.16
2023-04-04T17:11:02.634Z,102021.94
2023-04-04T17:13:30.190Z,102016.59
2023-04-04T17:15:58.952Z,102012.84
2023-04-04T17:18:27.070Z,102012.47
2023-04-04T17:20:55.193Z,102017.38
2023-04-04T17:23:22.850Z,102011.38
2023-04-04T17:25:51.972Z,102022.28
2023-04-04T17:28:19.996Z,102011.84
2023-04-04T17:30:47.766Z,102016.75
2023-04-04T17:33:15.286Z,102014.56
2023-04-04T17:35:42.959Z,102020.72
2023-04-04T17:38:09.972Z,102018.63
2023-04-04T17:40:37.089Z,102016.75
2023-04-04T17:43:04.175Z,102019.84
2023-04-04T17:45:31.758Z,102011.63
2023-04-04T17:47:59.045Z,102021.97
2023-04-04T17:50:27.212Z,102018.25
2023-04-04T17:52:54.858Z,102019.09
2023-04-04T17:55:22.629Z,102011.88
2023-04-04T17:57:49.717Z,102008.13
2023-04-04T18:00:16.957Z,102014.84
2023-04-04T18:02:44.724Z,102023.19
2023-04-04T18:05:13.694Z,102018.75
2023-04-04T18:07:41.068Z,102019.50
2023-04-04T18:10:08.780Z,102018.66
2023-04-04T18:12:36.709Z,102024.34
2023-04-04T18:15:04.369Z,102020.63
2023-04-04T18:17:32.869Z,102016.72
2023-04-04T18:20:01.233Z,102012.94
2023-04-04T18:22:28.570Z,102014.47
2023-04-04T18:24:55.680Z,102016.84
2023-04-04T18:27:22.733Z,102028.78
2023-04-04T18:29:49.938Z,102025.84
2023-04-04T18:32:17.574Z,102030.72
2023-04-04T18:34:44.880Z,102031.97
2023-04-04T18:37:12.731Z,102022.94
2023-04-04T18:39:39.719Z,102020.13
2023-04-04T18:42:06.639Z,102021.66
2023-04-04T18:44:33.640Z,102024.81
2023-04-04T18:47:04.651Z,102027.44
2023-04-04T18:49:31.899Z,102022.56
2023-04-04T18:51:58.912Z,102027.25
2023-04-04T18:54:27.535Z,102027.78
2023-04-04T18:56:56.505Z,102036.81
2023-04-04T18:59:24.554Z,102033.88
2023-04-04T19:01:54.363Z,102029.97
2023-04-04T19:04:21.922Z,102042.84
2023-04-04T19:06:49.750Z,102044.06
2023-04-04T19:09:17.111Z,102038.34
2023-04-04T19:11:44.139Z,102044.84
2023-04-04T19:14:11.268Z,102042.63
2023-04-04T19:16:38.921Z,102047.31
2023-04-04T19:19:06.265Z,102047.81
2023-04-04T19:21:33.299Z,102050.84
2023-04-04T19:24:00.363Z,102046.91
2023-04-04T19:26:28.083Z,102054.25
2023-04-04T19:28:55.070Z,102048.53
2023-04-04T19:31:23.031Z,102038.22
2023-04-04T19:33:51.446Z,102041.38
2023-04-04T19:36:18.418Z,102038.72
2023-04-04T19:38:45.717Z,102037.22
2023-04-04T19:41:28.730Z,102030.66
2023-04-04T19:43:55.701Z,102047.41
2023-04-04T19:46:33.265Z,102041.69
2023-04-04T19:49:09.758Z,102047.47
2023-04-04T19:51:39.207Z,102041.63
2023-04-04T19:54:08.569Z,102058.53
2023-04-04T19:56:35.725Z,102064.28
2023-04-04T19:59:06.158Z,102063.00
2023-04-04T20:01:35.196Z,102068.63
2023-04-04T20:04:11.948Z,102072.59
2023-04-04T20:06:39.296Z,102072.88
2023-04-04T20:09:26.176Z,102074.88
2023-04-04T20:11:53.495Z,102072.63
2023-04-04T20:14:21.907Z,102077.31
2023-04-04T20:16:50.087Z,102073.38
2023-04-04T20:19:20.074Z,102071.13
2023-04-04T20:21:48.769Z,102084.50
2023-04-04T20:24:17.447Z,102078.75
2023-04-04T20:26:55.268Z,102081.53
2023-04-04T20:29:24.711Z,102087.03
2023-04-04T20:31:53.176Z,102086.69
2023-04-04T20:34:30.144Z,102079.97
2023-04-04T20:36:57.087Z,102076.88
2023-04-04T20:39:33.821Z,102078.69
2023-04-04T20:42:01.489Z,102072.97
2023-04-04T20:44:28.444Z,102071.38
2023-04-04T20:46:55.607Z,102066.97
2023-04-04T20:49:22.628Z,102070.66
2023-04-04T20:51:49.571Z,102077.72
2023-04-04T20:54:16.603Z,102069.22
2023-04-04T20:56:43.725Z,102064.94
2023-04-04T20:59:19.868Z,102064.09
2023-04-04T21:01:46.784Z,102062.44
2023-04-04T21:04:22.893Z,102064.44
2023-04-04T21:06:52.875Z,102061.81
2023-04-04T21:09:19.988Z,102063.00
2023-04-04T21:11:46.967Z,102062.91
2023-04-04T21:14:22.030Z,102066.50
2023-04-04T21:16:51.557Z,102067.44
2023-04-04T21:19:21.684Z,102062.19
2023-04-04T21:21:49.690Z,102064.59
2023-04-04T21:24:16.939Z,102068.06
2023-04-04T21:26:44.393Z,102061.81
2023-04-04T21:29:12.594Z,102061.13
2023-04-04T21:31:40.587Z,102063.84
2023-04-04T21:34:09.935Z,102065.75
2023-04-04T21:36:36.907Z,102068.50
2023-04-04T21:39:06.894Z,102065.97
2023-04-04T21:41:35.065Z,102071.13
2023-04-04T21:44:02.944Z,102073.03
2023-04-04T21:46:32.067Z,102074.81
2023-04-04T21:48:59.096Z,102076.84
2023-04-04T21:51:26.697Z,102068.22
2023-04-04T21:53:53.790Z,102071.84
2023-04-04T21:56:21.778Z,102070.88
2023-04-04T21:58:48.944Z,102073.50
2023-04-04T22:01:15.970Z,102076.00
2023-04-04T22:03:42.920Z,102069.22
2023-04-04T22:06:09.942Z,102084.16
2023-04-04T22:08:36.851Z,102079.25
2023-04-04T22:11:04.359Z,102070.63
2023-04-04T22:13:31.313Z,102077.69
2023-04-04T22:15:59.662Z,102081.63
2023-04-04T22:18:30.367Z,102080.28
2023-04-04T22:21:03.528Z,102074.31
2023-04-04T22:23:34.614Z,102082.91
2023-04-04T22:26:05.681Z,102074.19
2023-04-04T22:28:33.591Z,102070.84
2023-04-04T22:31:01.464Z,102069.06
2023-04-04T22:33:30.067Z,102067.28
2023-04-04T22:35:58.396Z,102071.69
2023-04-04T22:38:26.843Z,102064.66
2023-04-04T22:40:54.249Z,102064.88
2023-04-04T22:43:22.103Z,102064.03
2023-04-04T22:45:49.478Z,102057.34
2023-04-04T22:48:17.464Z,102055.91
2023-04-04T22:50:45.896Z,102058.28
2023-04-04T22:53:14.949Z,102061.16
2023-04-04T22:55:41.846Z,102059.72
2023-04-04T22:58:08.790Z,102067.63
2023-04-04T23:00:35.710Z,102063.31
2023-04-04T23:03:02.919Z,102069.50
2023-04-04T23:05:29.801Z,102061.50
2023-04-04T23:08:01.595Z,102054.56
2023-04-04T23:10:29.036Z,102053.75
2023-04-04T23:12:55.995Z,102056.38
2023-04-04T23:15:23.074Z,102044.06
2023-04-04T23:17:51.123Z,102045.00
2023-04-04T23:20:18.514Z,102042.63
2023-04-04T23:22:46.057Z,102031.50
2023-04-04T23:25:12.914Z,102023.50
2023-04-04T23:27:40.475Z,102028.06
2023-04-04T23:30:08.166Z,102029.13
2023-04-04T23:32:35.082Z,102038.09
2023-04-04T23:35:02.140Z,102029.47
2023-04-04T23:37:29.230Z,102026.09
2023-04-04T23:39:56.062Z,102022.88
2023-04-04T23:42:23.140Z,102030.88
2023-04-04T23:44:50.024Z,102032.56
2023-04-04T23:47:16.932Z,102023.84
2023-04-04T23:49:43.814Z,102030.66
2023-04-04T23:52:10.831Z,102028.97
2023-04-04T23:54:40.306Z,102025.75
2023-04-04T23:57:07.224Z,102027.53
2023-04-04T23:59:34.072Z,102027.66
